sensor_id;sensor_type;location;lat;lon;timestamp;P1;durP1;ratioP1;P2;durP2;ratioP2
34805;SDS011;65084;42.196;25.326;2023-07-28T00:00:09;3.45;;;3.15;;
34805;SDS011;65084;42.196;25.326;2023-07-28T00:02:37;6.35;;;2.65;;
34805;SDS011;65084;42.196;25.326;2023-07-28T00:05:06;7.05;;;2.70;;
34805;SDS011;65084;42.196;25.326;2023-07-28T00:07:33;7.22;;;2.78;;
34805;SDS011;65084;42.196;25.326;2023-07-28T00:10:01;6.78;;;3.00;;
34805;SDS011;65084;42.196;25.326;2023-07-28T00:12:29;4.72;;;2.83;;
34805;SDS011;65084;42.196;25.326;2023-07-28T00:14:56;5.28;;;2.63;;
34805;SDS011;65084;42.196;25.326;2023-07-28T00:17:25;3.88;;;3.58;;
34805;SDS011;65084;42.196;25.326;2023-07-28T00:19:52;5.90;;;2.80;;
34805;SDS011;65084;42.196;25.326;2023-07-28T00:22:21;10.13;;;2.60;;
34805;SDS011;65084;42.196;25.326;2023-07-28T00:24:48;3.97;;;2.92;;
34805;SDS011;65084;42.196;25.326;2023-07-28T00:27:15;4.07;;;2.75;;
34805;SDS011;65084;42.196;25.326;2023-07-28T00:29:43;4.40;;;2.80;;
34805;SDS011;65084;42.196;25.326;2023-07-28T00:32:10;10.93;;;2.83;;
34805;SDS011;65084;42.196;25.326;2023-07-28T00:34:38;6.15;;;2.65;;
34805;SDS011;65084;42.196;25.326;2023-07-28T00:37:05;3.67;;;2.55;;
34805;SDS011;65084;42.196;25.326;2023-07-28T00:39:34;8.52;;;2.75;;
34805;SDS011;65084;42.196;25.326;2023-07-28T00:42:01;6.68;;;2.72;;
34805;SDS011;65084;42.196;25.326;2023-07-28T00:44:28;2.70;;;2.42;;
34805;SDS011;65084;42.196;25.326;2023-07-28T00:46:56;3.58;;;2.88;;
34805;SDS011;65084;42.196;25.326;2023-07-28T00:49:23;7.18;;;2.90;;
34805;SDS011;65084;42.196;25.326;2023-07-28T00:51:50;4.55;;;2.95;;
34805;SDS011;65084;42.196;25.326;2023-07-28T00:54:18;5.22;;;3.05;;
34805;SDS011;65084;42.196;25.326;2023-07-28T00:56:47;3.42;;;2.67;;
34805;SDS011;65084;42.196;25.326;2023-07-28T00:59:16;5.25;;;2.67;;
34805;SDS011;65084;42.196;25.326;2023-07-28T01:01:43;11.85;;;3.17;;
34805;SDS011;65084;42.196;25.326;2023-07-28T01:04:10;3.55;;;2.63;;
34805;SDS011;65084;42.196;25.326;2023-07-28T01:06:41;2.78;;;2.30;;
34805;SDS011;65084;42.196;25.326;2023-07-28T01:09:12;2.88;;;2.35;;
34805;SDS011;65084;42.196;25.326;2023-07-28T01:11:53;3.92;;;2.53;;
34805;SDS011;65084;42.196;25.326;2023-07-28T01:14:20;4.20;;;2.40;;
34805;SDS011;65084;42.196;25.326;2023-07-28T01:16:48;2.25;;;2.10;;
34805;SDS011;65084;42.196;25.326;2023-07-28T01:19:15;4.03;;;2.55;;
34805;SDS011;65084;42.196;25.326;2023-07-28T01:21:44;2.95;;;2.38;;
34805;SDS011;65084;42.196;25.326;2023-07-28T01:24:14;3.35;;;2.58;;
34805;SDS011;65084;42.196;25.326;2023-07-28T01:26:44;2.78;;;2.58;;
34805;SDS011;65084;42.196;25.326;2023-07-28T01:29:12;5.55;;;2.72;;
34805;SDS011;65084;42.196;25.326;2023-07-28T01:31:40;4.78;;;3.10;;
34805;SDS011;65084;42.196;25.326;2023-07-28T01:34:07;4.05;;;2.38;;
34805;SDS011;65084;42.196;25.326;2023-07-28T01:36:34;6.20;;;2.78;;
34805;SDS011;65084;42.196;25.326;2023-07-28T01:39:02;6.72;;;2.67;;
34805;SDS011;65084;42.196;25.326;2023-07-28T01:41:29;2.72;;;2.38;;
34805;SDS011;65084;42.196;25.326;2023-07-28T01:43:58;2.28;;;2.17;;
34805;SDS011;65084;42.196;25.326;2023-07-28T01:46:25;4.43;;;2.50;;
34805;SDS011;65084;42.196;25.326;2023-07-28T01:48:52;2.45;;;2.25;;
34805;SDS011;65084;42.196;25.326;2023-07-28T01:51:19;4.82;;;2.42;;
34805;SDS011;65084;42.196;25.326;2023-07-28T01:53:47;2.42;;;2.22;;
34805;SDS011;65084;42.196;25.326;2023-07-28T01:56:14;4.82;;;2.25;;
34805;SDS011;65084;42.196;25.326;2023-07-28T01:58:41;4.80;;;2.30;;
34805;SDS011;65084;42.196;25.326;2023-07-28T02:01:10;5.40;;;2.35;;
34805;SDS011;65084;42.196;25.326;2023-07-28T02:03:39;2.83;;;2.60;;
34805;SDS011;65084;42.196;25.326;2023-07-28T02:06:06;4.72;;;2.92;;
34805;SDS011;65084;42.196;25.326;2023-07-28T02:08:33;4.50;;;2.60;;
34805;SDS011;65084;42.196;25.326;2023-07-28T02:11:01;7.70;;;3.30;;
34805;SDS011;65084;42.196;25.326;2023-07-28T02:13:29;6.63;;;3.20;;
34805;SDS011;65084;42.196;25.326;2023-07-28T02:15:56;5.82;;;2.67;;
34805;SDS011;65084;42.196;25.326;2023-07-28T02:18:25;4.88;;;2.90;;
34805;SDS011;65084;42.196;25.326;2023-07-28T02:20:52;3.20;;;2.83;;
34805;SDS011;65084;42.196;25.326;2023-07-28T02:23:20;2.88;;;2.45;;
34805;SDS011;65084;42.196;25.326;2023-07-28T02:25:47;2.97;;;2.78;;
34805;SDS011;65084;42.196;25.326;2023-07-28T02:28:14;6.53;;;2.85;;
34805;SDS011;65084;42.196;25.326;2023-07-28T02:30:41;3.28;;;2.53;;
34805;SDS011;65084;42.196;25.326;2023-07-28T02:33:09;3.90;;;2.55;;
34805;SDS011;65084;42.196;25.326;2023-07-28T02:35:37;3.58;;;2.78;;
34805;SDS011;65084;42.196;25.326;2023-07-28T02:38:05;11.95;;;2.70;;
34805;SDS011;65084;42.196;25.326;2023-07-28T02:40:32;3.10;;;2.72;;
34805;SDS011;65084;42.196;25.326;2023-07-28T02:42:59;4.25;;;2.72;;
34805;SDS011;65084;42.196;25.326;2023-07-28T02:45:27;4.65;;;3.33;;
34805;SDS011;65084;42.196;25.326;2023-07-28T02:47:54;4.50;;;2.70;;
34805;SDS011;65084;42.196;25.326;2023-07-28T02:50:21;9.65;;;3.00;;
34805;SDS011;65084;42.196;25.326;2023-07-28T02:52:50;3.60;;;2.45;;
34805;SDS011;65084;42.196;25.326;2023-07-28T02:55:18;6.70;;;2.55;;
34805;SDS011;65084;42.196;25.326;2023-07-28T02:57:45;11.93;;;3.05;;
34805;SDS011;65084;42.196;25.326;2023-07-28T03:00:12;8.75;;;2.65;;
34805;SDS011;65084;42.196;25.326;2023-07-28T03:02:40;4.93;;;3.28;;
34805;SDS011;65084;42.196;25.326;2023-07-28T03:05:07;8.00;;;2.50;;
34805;SDS011;65084;42.196;25.326;2023-07-28T03:07:34;4.45;;;2.63;;
34805;SDS011;65084;42.196;25.326;2023-07-28T03:10:03;6.53;;;2.17;;
34805;SDS011;65084;42.196;25.326;2023-07-28T03:12:31;3.65;;;2.08;;
34805;SDS011;65084;42.196;25.326;2023-07-28T03:14:58;5.13;;;2.58;;
34805;SDS011;65084;42.196;25.326;2023-07-28T03:17:25;5.15;;;2.33;;
34805;SDS011;65084;42.196;25.326;2023-07-28T03:19:52;6.55;;;2.70;;
34805;SDS011;65084;42.196;25.326;2023-07-28T03:22:20;7.38;;;2.22;;
34805;SDS011;65084;42.196;25.326;2023-07-28T03:24:47;4.20;;;2.08;;
34805;SDS011;65084;42.196;25.326;2023-07-28T03:27:16;4.25;;;2.58;;
34805;SDS011;65084;42.196;25.326;2023-07-28T03:29:43;3.03;;;2.20;;
34805;SDS011;65084;42.196;25.326;2023-07-28T03:32:10;2.58;;;2.03;;
34805;SDS011;65084;42.196;25.326;2023-07-28T03:34:38;11.27;;;2.20;;
34805;SDS011;65084;42.196;25.326;2023-07-28T03:37:05;4.35;;;2.42;;
34805;SDS011;65084;42.196;25.326;2023-07-28T03:39:32;5.53;;;2.35;;
34805;SDS011;65084;42.196;25.326;2023-07-28T03:42:00;2.63;;;2.30;;
34805;SDS011;65084;42.196;25.326;2023-07-28T03:44:28;3.88;;;2.22;;
34805;SDS011;65084;42.196;25.326;2023-07-28T03:46:56;4.40;;;2.13;;
34805;SDS011;65084;42.196;25.326;2023-07-28T03:49:23;3.58;;;2.15;;
34805;SDS011;65084;42.196;25.326;2023-07-28T03:51:50;2.85;;;2.10;;
34805;SDS011;65084;42.196;25.326;2023-07-28T03:54:17;8.00;;;2.25;;
34805;SDS011;65084;42.196;25.326;2023-07-28T03:56:45;7.13;;;2.53;;
34805;SDS011;65084;42.196;25.326;2023-07-28T03:59:12;23.15;;;3.63;;
34805;SDS011;65084;42.196;25.326;2023-07-28T04:01:41;5.45;;;2.42;;
34805;SDS011;65084;42.196;25.326;2023-07-28T04:04:08;4.55;;;2.60;;
34805;SDS011;65084;42.196;25.326;2023-07-28T04:06:39;12.40;;;3.20;;
34805;SDS011;65084;42.196;25.326;2023-07-28T04:09:07;9.88;;;2.40;;
34805;SDS011;65084;42.196;25.326;2023-07-28T04:11:34;17.70;;;2.60;;
34805;SDS011;65084;42.196;25.326;2023-07-28T04:14:01;15.93;;;2.63;;
34805;SDS011;65084;42.196;25.326;2023-07-28T04:16:29;19.85;;;2.33;;
34805;SDS011;65084;42.196;25.326;2023-07-28T04:18:57;6.80;;;2.47;;
34805;SDS011;65084;42.196;25.326;2023-07-28T04:21:25;13.80;;;3.00;;
34805;SDS011;65084;42.196;25.326;2023-07-28T04:23:52;6.18;;;2.80;;
34805;SDS011;65084;42.196;25.326;2023-07-28T04:26:19;3.50;;;2.50;;
34805;SDS011;65084;42.196;25.326;2023-07-28T04:28:47;5.65;;;3.00;;
34805;SDS011;65084;42.196;25.326;2023-07-28T04:31:14;11.60;;;3.30;;
34805;SDS011;65084;42.196;25.326;2023-07-28T04:33:42;8.75;;;2.90;;
34805;SDS011;65084;42.196;25.326;2023-07-28T04:36:10;11.65;;;2.70;;
34805;SDS011;65084;42.196;25.326;2023-07-28T04:38:38;6.40;;;2.08;;
34805;SDS011;65084;42.196;25.326;2023-07-28T04:41:05;3.10;;;2.45;;
34805;SDS011;65084;42.196;25.326;2023-07-28T04:43:32;4.90;;;2.97;;
34805;SDS011;65084;42.196;25.326;2023-07-28T04:45:59;6.40;;;2.60;;
34805;SDS011;65084;42.196;25.326;2023-07-28T04:48:27;7.40;;;2.92;;
34805;SDS011;65084;42.196;25.326;2023-07-28T04:50:54;6.20;;;2.78;;
34805;SDS011;65084;42.196;25.326;2023-07-28T04:53:23;9.15;;;3.20;;
34805;SDS011;65084;42.196;25.326;2023-07-28T04:55:50;3.72;;;3.00;;
34805;SDS011;65084;42.196;25.326;2023-07-28T04:58:17;3.75;;;2.63;;
34805;SDS011;65084;42.196;25.326;2023-07-28T05:00:45;4.30;;;2.97;;
34805;SDS011;65084;42.196;25.326;2023-07-28T05:03:12;4.22;;;2.83;;
34805;SDS011;65084;42.196;25.326;2023-07-28T05:05:42;4.22;;;2.78;;
34805;SDS011;65084;42.196;25.326;2023-07-28T05:08:10;3.38;;;2.60;;
34805;SDS011;65084;42.196;25.326;2023-07-28T05:10:40;5.68;;;2.90;;
34805;SDS011;65084;42.196;25.326;2023-07-28T05:13:08;2.50;;;2.30;;
34805;SDS011;65084;42.196;25.326;2023-07-28T05:15:35;6.22;;;2.58;;
34805;SDS011;65084;42.196;25.326;2023-07-28T05:18:02;2.55;;;2.35;;
34805;SDS011;65084;42.196;25.326;2023-07-28T05:20:29;7.50;;;2.45;;
34805;SDS011;65084;42.196;25.326;2023-07-28T05:22:57;2.65;;;1.88;;
34805;SDS011;65084;42.196;25.326;2023-07-28T05:25:24;4.03;;;2.20;;
34805;SDS011;65084;42.196;25.326;2023-07-28T05:27:53;5.40;;;2.47;;
34805;SDS011;65084;42.196;25.326;2023-07-28T05:30:20;6.97;;;2.33;;
34805;SDS011;65084;42.196;25.326;2023-07-28T05:32:47;1.80;;;1.70;;
34805;SDS011;65084;42.196;25.326;2023-07-28T05:35:15;3.72;;;2.03;;
34805;SDS011;65084;42.196;25.326;2023-07-28T05:37:42;3.65;;;2.10;;
34805;SDS011;65084;42.196;25.326;2023-07-28T05:40:10;6.18;;;2.00;;
34805;SDS011;65084;42.196;25.326;2023-07-28T05:42:38;3.22;;;1.92;;
34805;SDS011;65084;42.196;25.326;2023-07-28T05:45:07;8.38;;;2.35;;
34805;SDS011;65084;42.196;25.326;2023-07-28T05:47:34;2.70;;;2.30;;
34805;SDS011;65084;42.196;25.326;2023-07-28T05:50:02;4.35;;;2.28;;
34805;SDS011;65084;42.196;25.326;2023-07-28T05:52:29;6.90;;;2.60;;
34805;SDS011;65084;42.196;25.326;2023-07-28T05:54:56;2.47;;;2.28;;
34805;SDS011;65084;42.196;25.326;2023-07-28T05:57:24;2.63;;;2.08;;
34805;SDS011;65084;42.196;25.326;2023-07-28T05:59:51;2.45;;;2.25;;
34805;SDS011;65084;42.196;25.326;2023-07-28T06:02:19;2.63;;;2.20;;
34805;SDS011;65084;42.196;25.326;2023-07-28T06:04:47;2.60;;;2.10;;
34805;SDS011;65084;42.196;25.326;2023-07-28T06:07:14;4.00;;;2.13;;
34805;SDS011;65084;42.196;25.326;2023-07-28T06:09:42;4.30;;;2.10;;
34805;SDS011;65084;42.196;25.326;2023-07-28T06:12:09;7.90;;;2.05;;
34805;SDS011;65084;42.196;25.326;2023-07-28T06:14:38;3.22;;;2.10;;
34805;SDS011;65084;42.196;25.326;2023-07-28T06:17:05;3.25;;;2.38;;
34805;SDS011;65084;42.196;25.326;2023-07-28T06:19:34;4.75;;;2.03;;
34805;SDS011;65084;42.196;25.326;2023-07-28T06:22:01;2.42;;;2.22;;
34805;SDS011;65084;42.196;25.326;2023-07-28T06:24:29;5.55;;;2.10;;
34805;SDS011;65084;42.196;25.326;2023-07-28T06:26:57;2.85;;;1.98;;
34805;SDS011;65084;42.196;25.326;2023-07-28T06:29:24;9.73;;;1.90;;
34805;SDS011;65084;42.196;25.326;2023-07-28T06:31:51;2.05;;;1.95;;
34805;SDS011;65084;42.196;25.326;2023-07-28T06:34:19;2.70;;;2.03;;
34805;SDS011;65084;42.196;25.326;2023-07-28T06:36:47;2.25;;;1.90;;
34805;SDS011;65084;42.196;25.326;2023-07-28T06:39:15;2.80;;;1.80;;
34805;SDS011;65084;42.196;25.326;2023-07-28T06:41:42;4.03;;;2.42;;
34805;SDS011;65084;42.196;25.326;2023-07-28T06:44:09;2.22;;;2.00;;
34805;SDS011;65084;42.196;25.326;2023-07-28T06:46:37;6.40;;;2.38;;
34805;SDS011;65084;42.196;25.326;2023-07-28T06:49:04;2.53;;;2.33;;
34805;SDS011;65084;42.196;25.326;2023-07-28T06:51:31;3.78;;;2.47;;
34805;SDS011;65084;42.196;25.326;2023-07-28T06:54:00;7.93;;;3.08;;
34805;SDS011;65084;42.196;25.326;2023-07-28T06:56:27;5.60;;;1.85;;
34805;SDS011;65084;42.196;25.326;2023-07-28T06:58:54;5.28;;;2.00;;
34805;SDS011;65084;42.196;25.326;2023-07-28T07:01:21;3.83;;;2.13;;
34805;SDS011;65084;42.196;25.326;2023-07-28T07:03:49;1.85;;;1.75;;
34805;SDS011;65084;42.196;25.326;2023-07-28T07:06:17;7.43;;;2.10;;
34805;SDS011;65084;42.196;25.326;2023-07-28T07:08:44;5.32;;;2.10;;
34805;SDS011;65084;42.196;25.326;2023-07-28T07:11:13;2.35;;;1.70;;
34805;SDS011;65084;42.196;25.326;2023-07-28T07:13:40;3.47;;;1.67;;
34805;SDS011;65084;42.196;25.326;2023-07-28T07:16:12;2.05;;;1.95;;
34805;SDS011;65084;42.196;25.326;2023-07-28T07:18:41;5.80;;;1.73;;
34805;SDS011;65084;42.196;25.326;2023-07-28T07:21:09;1.63;;;1.50;;
34805;SDS011;65084;42.196;25.326;2023-07-28T07:23:36;1.67;;;1.50;;
34805;SDS011;65084;42.196;25.326;2023-07-28T07:26:03;2.85;;;1.60;;
34805;SDS011;65084;42.196;25.326;2023-07-28T07:28:32;2.15;;;1.80;;
34805;SDS011;65084;42.196;25.326;2023-07-28T07:31:00;5.95;;;1.83;;
34805;SDS011;65084;42.196;25.326;2023-07-28T07:33:28;3.92;;;2.47;;
34805;SDS011;65084;42.196;25.326;2023-07-28T07:35:55;10.10;;;2.08;;
34805;SDS011;65084;42.196;25.326;2023-07-28T07:38:23;6.78;;;1.70;;
34805;SDS011;65084;42.196;25.326;2023-07-28T07:40:50;1.95;;;1.70;;
34805;SDS011;65084;42.196;25.326;2023-07-28T07:43:17;2.75;;;1.80;;
34805;SDS011;65084;42.196;25.326;2023-07-28T07:45:47;3.03;;;1.52;;
34805;SDS011;65084;42.196;25.326;2023-07-28T07:48:16;2.97;;;1.85;;
34805;SDS011;65084;42.196;25.326;2023-07-28T07:50:43;2.90;;;1.52;;
34805;SDS011;65084;42.196;25.326;2023-07-28T07:53:11;2.47;;;1.92;;
34805;SDS011;65084;42.196;25.326;2023-07-28T07:55:38;1.70;;;1.60;;
34805;SDS011;65084;42.196;25.326;2023-07-28T07:58:05;1.58;;;1.48;;
34805;SDS011;65084;42.196;25.326;2023-07-28T08:00:33;1.60;;;1.50;;
34805;SDS011;65084;42.196;25.326;2023-07-28T08:03:03;1.65;;;1.50;;
34805;SDS011;65084;42.196;25.326;2023-07-28T08:05:30;1.40;;;1.30;;
34805;SDS011;65084;42.196;25.326;2023-07-28T08:07:58;2.10;;;1.85;;
34805;SDS011;65084;42.196;25.326;2023-07-28T08:10:25;3.67;;;1.70;;
34805;SDS011;65084;42.196;25.326;2023-07-28T08:12:52;1.70;;;1.60;;
34805;SDS011;65084;42.196;25.326;2023-07-28T08:15:20;1.73;;;1.63;;
34805;SDS011;65084;42.196;25.326;2023-07-28T08:17:47;2.65;;;1.50;;
34805;SDS011;65084;42.196;25.326;2023-07-28T08:20:17;6.80;;;1.48;;
34805;SDS011;65084;42.196;25.326;2023-07-28T08:22:44;3.30;;;1.55;;
34805;SDS011;65084;42.196;25.326;2023-07-28T08:25:11;1.70;;;1.60;;
34805;SDS011;65084;42.196;25.326;2023-07-28T08:27:38;2.03;;;1.67;;
34805;SDS011;65084;42.196;25.326;2023-07-28T08:30:06;2.13;;;1.75;;
34805;SDS011;65084;42.196;25.326;2023-07-28T08:32:34;3.20;;;1.83;;
34805;SDS011;65084;42.196;25.326;2023-07-28T08:35:01;1.83;;;1.38;;
34805;SDS011;65084;42.196;25.326;2023-07-28T08:37:30;14.05;;;3.47;;
34805;SDS011;65084;42.196;25.326;2023-07-28T08:39:58;5.47;;;1.98;;
34805;SDS011;65084;42.196;25.326;2023-07-28T08:42:25;3.28;;;1.60;;
34805;SDS011;65084;42.196;25.326;2023-07-28T08:44:52;2.13;;;1.25;;
34805;SDS011;65084;42.196;25.326;2023-07-28T08:47:19;6.13;;;1.50;;
34805;SDS011;65084;42.196;25.326;2023-07-28T08:49:47;3.40;;;1.50;;
34805;SDS011;65084;42.196;25.326;2023-07-28T08:52:15;3.50;;;1.35;;
34805;SDS011;65084;42.196;25.326;2023-07-28T08:54:44;3.83;;;1.60;;
34805;SDS011;65084;42.196;25.326;2023-07-28T08:57:11;2.97;;;1.70;;
34805;SDS011;65084;42.196;25.326;2023-07-28T08:59:39;2.03;;;1.50;;
34805;SDS011;65084;42.196;25.326;2023-07-28T09:02:13;3.95;;;1.30;;
34805;SDS011;65084;42.196;25.326;2023-07-28T09:04:41;2.90;;;1.40;;
34805;SDS011;65084;42.196;25.326;2023-07-28T09:07:08;2.78;;;1.45;;
34805;SDS011;65084;42.196;25.326;2023-07-28T09:09:36;2.10;;;1.45;;
34805;SDS011;65084;42.196;25.326;2023-07-28T09:12:05;2.80;;;1.77;;
34805;SDS011;65084;42.196;25.326;2023-07-28T09:14:34;2.08;;;1.40;;
34805;SDS011;65084;42.196;25.326;2023-07-28T09:17:06;1.70;;;1.60;;
34805;SDS011;65084;42.196;25.326;2023-07-28T09:19:33;1.33;;;1.25;;
34805;SDS011;65084;42.196;25.326;2023-07-28T09:22:01;3.22;;;1.27;;
34805;SDS011;65084;42.196;25.326;2023-07-28T09:24:30;3.33;;;1.55;;
34805;SDS011;65084;42.196;25.326;2023-07-28T09:26:58;1.30;;;1.20;;
34805;SDS011;65084;42.196;25.326;2023-07-28T09:29:27;4.55;;;1.40;;
34805;SDS011;65084;42.196;25.326;2023-07-28T09:32:02;1.83;;;1.10;;
34805;SDS011;65084;42.196;25.326;2023-07-28T09:34:29;13.25;;;2.03;;
34805;SDS011;65084;42.196;25.326;2023-07-28T09:36:57;1.48;;;1.38;;
34805;SDS011;65084;42.196;25.326;2023-07-28T09:39:25;1.40;;;1.30;;
34805;SDS011;65084;42.196;25.326;2023-07-28T09:41:53;1.27;;;1.15;;
34805;SDS011;65084;42.196;25.326;2023-07-28T09:44:23;2.97;;;1.23;;
34805;SDS011;65084;42.196;25.326;2023-07-28T09:46:53;1.58;;;1.48;;
34805;SDS011;65084;42.196;25.326;2023-07-28T09:49:21;1.20;;;1.10;;
34805;SDS011;65084;42.196;25.326;2023-07-28T09:51:49;2.83;;;1.70;;
34805;SDS011;65084;42.196;25.326;2023-07-28T09:54:17;1.73;;;1.35;;
34805;SDS011;65084;42.196;25.326;2023-07-28T09:56:50;5.38;;;1.30;;
34805;SDS011;65084;42.196;25.326;2023-07-28T09:59:17;1.60;;;1.50;;
34805;SDS011;65084;42.196;25.326;2023-07-28T10:01:45;1.90;;;1.50;;
34805;SDS011;65084;42.196;25.326;2023-07-28T10:04:13;4.97;;;1.45;;
34805;SDS011;65084;42.196;25.326;2023-07-28T10:06:41;2.08;;;1.45;;
34805;SDS011;65084;42.196;25.326;2023-07-28T10:09:08;1.95;;;1.45;;
34805;SDS011;65084;42.196;25.326;2023-07-28T10:11:37;4.15;;;1.45;;
34805;SDS011;65084;42.196;25.326;2023-07-28T10:14:04;1.45;;;1.35;;
34805;SDS011;65084;42.196;25.326;2023-07-28T10:16:37;1.80;;;1.70;;
34805;SDS011;65084;42.196;25.326;2023-07-28T10:19:04;2.22;;;2.05;;
34805;SDS011;65084;42.196;25.326;2023-07-28T10:21:33;1.88;;;1.38;;
34805;SDS011;65084;42.196;25.326;2023-07-28T10:24:06;1.45;;;1.30;;
34805;SDS011;65084;42.196;25.326;2023-07-28T10:26:36;1.77;;;1.50;;
34805;SDS011;65084;42.196;25.326;2023-07-28T10:29:09;3.72;;;1.20;;
34805;SDS011;65084;42.196;25.326;2023-07-28T10:31:38;1.50;;;1.40;;
34805;SDS011;65084;42.196;25.326;2023-07-28T10:34:16;1.60;;;1.50;;
34805;SDS011;65084;42.196;25.326;2023-07-28T10:36:44;6.82;;;1.67;;
34805;SDS011;65084;42.196;25.326;2023-07-28T10:39:13;2.08;;;1.42;;
34805;SDS011;65084;42.196;25.326;2023-07-28T10:41:59;1.88;;;1.60;;
34805;SDS011;65084;42.196;25.326;2023-07-28T10:44:27;1.60;;;1.50;;
34805;SDS011;65084;42.196;25.326;2023-07-28T10:46:54;2.50;;;1.52;;
34805;SDS011;65084;42.196;25.326;2023-07-28T10:49:23;3.67;;;1.83;;
34805;SDS011;65084;42.196;25.326;2023-07-28T10:51:52;1.67;;;1.58;;
34805;SDS011;65084;42.196;25.326;2023-07-28T10:54:20;1.90;;;1.67;;
34805;SDS011;65084;42.196;25.326;2023-07-28T10:56:47;1.20;;;1.20;;
34805;SDS011;65084;42.196;25.326;2023-07-28T10:59:15;2.63;;;1.80;;
34805;SDS011;65084;42.196;25.326;2023-07-28T11:01:42;4.22;;;1.90;;
34805;SDS011;65084;42.196;25.326;2023-07-28T11:04:10;2.40;;;1.52;;
34805;SDS011;65084;42.196;25.326;2023-07-28T11:06:40;1.85;;;1.75;;
34805;SDS011;65084;42.196;25.326;2023-07-28T11:09:08;2.10;;;1.90;;
34805;SDS011;65084;42.196;25.326;2023-07-28T11:11:36;2.03;;;1.92;;
34805;SDS011;65084;42.196;25.326;2023-07-28T11:14:04;1.65;;;1.55;;
34805;SDS011;65084;42.196;25.326;2023-07-28T11:16:33;1.52;;;1.42;;
34805;SDS011;65084;42.196;25.326;2023-07-28T11:19:00;3.05;;;1.70;;
34805;SDS011;65084;42.196;25.326;2023-07-28T11:21:28;1.60;;;1.50;;
34805;SDS011;65084;42.196;25.326;2023-07-28T11:23:55;1.83;;;1.73;;
34805;SDS011;65084;42.196;25.326;2023-07-28T11:26:24;2.00;;;1.80;;
34805;SDS011;65084;42.196;25.326;2023-07-28T11:28:52;2.83;;;1.92;;
34805;SDS011;65084;42.196;25.326;2023-07-28T11:31:23;1.95;;;1.60;;
34805;SDS011;65084;42.196;25.326;2023-07-28T11:33:52;2.55;;;1.50;;
34805;SDS011;65084;42.196;25.326;2023-07-28T11:36:22;3.42;;;1.95;;
34805;SDS011;65084;42.196;25.326;2023-07-28T11:38:50;9.20;;;2.10;;
34805;SDS011;65084;42.196;25.326;2023-07-28T11:41:18;1.77;;;1.67;;
34805;SDS011;65084;42.196;25.326;2023-07-28T11:43:47;3.03;;;2.03;;
34805;SDS011;65084;42.196;25.326;2023-07-28T11:46:34;3.97;;;1.63;;
34805;SDS011;65084;42.196;25.326;2023-07-28T11:49:09;2.22;;;1.90;;
34805;SDS011;65084;42.196;25.326;2023-07-28T11:51:37;1.80;;;1.70;;
34805;SDS011;65084;42.196;25.326;2023-07-28T11:54:04;2.72;;;1.95;;
34805;SDS011;65084;42.196;25.326;2023-07-28T11:56:33;2.17;;;2.00;;
34805;SDS011;65084;42.196;25.326;2023-07-28T11:59:02;3.92;;;1.45;;
34805;SDS011;65084;42.196;25.326;2023-07-28T12:01:29;1.67;;;1.58;;
34805;SDS011;65084;42.196;25.326;2023-07-28T12:03:56;1.90;;;1.67;;
34805;SDS011;65084;42.196;25.326;2023-07-28T12:06:25;2.25;;;1.80;;
34805;SDS011;65084;42.196;25.326;2023-07-28T12:09:03;1.77;;;1.67;;
34805;SDS011;65084;42.196;25.326;2023-07-28T12:11:31;2.95;;;1.77;;
34805;SDS011;65084;42.196;25.326;2023-07-28T12:13:58;2.55;;;1.75;;
34805;SDS011;65084;42.196;25.326;2023-07-28T12:16:38;2.22;;;1.98;;
34805;SDS011;65084;42.196;25.326;2023-07-28T12:19:06;1.67;;;1.58;;
34805;SDS011;65084;42.196;25.326;2023-07-28T12:21:34;1.92;;;1.80;;
34805;SDS011;65084;42.196;25.326;2023-07-28T12:24:02;2.10;;;1.90;;
34805;SDS011;65084;42.196;25.326;2023-07-28T12:26:30;1.65;;;1.55;;
34805;SDS011;65084;42.196;25.326;2023-07-28T12:28:59;1.85;;;1.50;;
34805;SDS011;65084;42.196;25.326;2023-07-28T12:31:27;1.90;;;1.80;;
34805;SDS011;65084;42.196;25.326;2023-07-28T12:33:55;1.70;;;1.60;;
34805;SDS011;65084;42.196;25.326;2023-07-28T12:36:23;3.83;;;2.13;;
34805;SDS011;65084;42.196;25.326;2023-07-28T12:38:50;2.03;;;1.80;;
34805;SDS011;65084;42.196;25.326;2023-07-28T12:41:18;1.92;;;1.83;;
34805;SDS011;65084;42.196;25.326;2023-07-28T12:43:45;2.22;;;1.55;;
34805;SDS011;65084;42.196;25.326;2023-07-28T12:46:12;4.32;;;1.98;;
34805;SDS011;65084;42.196;25.326;2023-07-28T12:48:40;2.40;;;1.65;;
34805;SDS011;65084;42.196;25.326;2023-07-28T12:51:08;1.85;;;1.30;;
34805;SDS011;65084;42.196;25.326;2023-07-28T12:53:36;1.90;;;1.80;;
34805;SDS011;65084;42.196;25.326;2023-07-28T12:56:03;2.38;;;1.73;;
34805;SDS011;65084;42.196;25.326;2023-07-28T12:58:30;2.63;;;1.50;;
34805;SDS011;65084;42.196;25.326;2023-07-28T13:00:58;1.70;;;1.60;;
34805;SDS011;65084;42.196;25.326;2023-07-28T13:03:27;1.70;;;1.58;;
34805;SDS011;65084;42.196;25.326;2023-07-28T13:05:54;1.67;;;1.58;;
34805;SDS011;65084;42.196;25.326;2023-07-28T13:08:23;3.97;;;1.63;;
34805;SDS011;65084;42.196;25.326;2023-07-28T13:10:50;1.88;;;1.60;;
34805;SDS011;65084;42.196;25.326;2023-07-28T13:13:17;1.92;;;1.75;;
34805;SDS011;65084;42.196;25.326;2023-07-28T13:15:45;3.55;;;1.80;;
34805;SDS011;65084;42.196;25.326;2023-07-28T13:18:12;6.93;;;1.90;;
34805;SDS011;65084;42.196;25.326;2023-07-28T13:20:39;5.50;;;1.73;;
34805;SDS011;65084;42.196;25.326;2023-07-28T13:23:06;6.68;;;1.92;;
34805;SDS011;65084;42.196;25.326;2023-07-28T13:25:35;1.65;;;1.45;;
34805;SDS011;65084;42.196;25.326;2023-07-28T13:28:02;2.13;;;1.95;;
34805;SDS011;65084;42.196;25.326;2023-07-28T13:30:30;1.52;;;1.42;;
34805;SDS011;65084;42.196;25.326;2023-07-28T13:32:57;2.30;;;1.83;;
34805;SDS011;65084;42.196;25.326;2023-07-28T13:35:24;7.50;;;1.65;;
34805;SDS011;65084;42.196;25.326;2023-07-28T13:37:52;1.65;;;1.55;;
34805;SDS011;65084;42.196;25.326;2023-07-28T13:40:19;2.08;;;1.95;;
34805;SDS011;65084;42.196;25.326;2023-07-28T13:42:47;3.33;;;1.70;;
34805;SDS011;65084;42.196;25.326;2023-07-28T13:45:15;3.08;;;1.70;;
34805;SDS011;65084;42.196;25.326;2023-07-28T13:47:42;1.88;;;1.67;;
34805;SDS011;65084;42.196;25.326;2023-07-28T13:50:10;1.60;;;1.45;;
34805;SDS011;65084;42.196;25.326;2023-07-28T13:52:37;6.97;;;1.90;;
34805;SDS011;65084;42.196;25.326;2023-07-28T13:55:04;1.77;;;1.67;;
34805;SDS011;65084;42.196;25.326;2023-07-28T13:57:32;4.60;;;1.88;;
34805;SDS011;65084;42.196;25.326;2023-07-28T14:00:00;1.75;;;1.65;;
34805;SDS011;65084;42.196;25.326;2023-07-28T14:02:28;3.35;;;1.95;;
34805;SDS011;65084;42.196;25.326;2023-07-28T14:04:55;2.63;;;2.20;;
34805;SDS011;65084;42.196;25.326;2023-07-28T14:07:22;2.10;;;1.90;;
34805;SDS011;65084;42.196;25.326;2023-07-28T14:09:49;3.30;;;2.00;;
34805;SDS011;65084;42.196;25.326;2023-07-28T14:12:17;4.05;;;2.10;;
34805;SDS011;65084;42.196;25.326;2023-07-28T14:14:44;2.10;;;1.80;;
34805;SDS011;65084;42.196;25.326;2023-07-28T14:17:13;2.30;;;2.10;;
34805;SDS011;65084;42.196;25.326;2023-07-28T14:19:40;5.68;;;2.17;;
34805;SDS011;65084;42.196;25.326;2023-07-28T14:22:07;1.98;;;1.88;;
34805;SDS011;65084;42.196;25.326;2023-07-28T14:24:34;2.75;;;2.15;;
34805;SDS011;65084;42.196;25.326;2023-07-28T14:27:02;1.80;;;1.70;;
34805;SDS011;65084;42.196;25.326;2023-07-28T14:29:29;1.77;;;1.67;;
34805;SDS011;65084;42.196;25.326;2023-07-28T14:31:56;2.00;;;1.80;;
34805;SDS011;65084;42.196;25.326;2023-07-28T14:34:25;2.50;;;1.83;;
34805;SDS011;65084;42.196;25.326;2023-07-28T14:36:52;3.20;;;1.77;;